Time;durP1;ratioP1;P1;durP2;ratioP2;P2;SDS_P1;SDS_P2;PMS_P1;PMS_P2;Temp;Humidity;BMP_temperature;BMP_pressure;BME280_temperature;BME280_humidity;BME280_pressure;Samples;Min_cycle;Max_cycle;Signal;HPM_P1;HPM_P2
2021/11/24 00:01:33;;;;;;;;;23.67;19.67;;;;;;;;5007444;28;45387;-71
2021/11/24 00:03:58;;;;;;;;;23.33;20.67;;;;;;;;5006900;28;47328;-71
2021/11/24 00:06:23;;;;;;;;;31.00;20.33;;;;;;;;4997856;28;45670;-72
2021/11/24 00:08:49;;;;;;;;;27.00;21.33;;;;;;;;5004831;28;45534;-71
2021/11/24 00:11:15;;;;;;;;;22.00;19.25;;;;;;;;5002152;28;45421;-72
2021/11/24 00:13:40;;;;;;;;;25.75;21.50;;;;;;;;5010249;28;47077;-71
2021/11/24 00:16:07;;;;;;;;;29.33;23.00;;;;;;;;5011927;28;45482;-73
2021/11/24 00:18:32;;;;;;;;;26.25;19.00;;;;;;;;5002471;28;45429;-73
2021/11/24 00:20:57;;;;;;;;;21.67;17.67;;;;;;;;5009137;28;45352;-72
2021/11/24 00:23:22;;;;;;;;;26.00;21.33;;;;;;;;5003719;28;46203;-71
2021/11/24 00:25:48;;;;;;;;;32.67;23.67;;;;;;;;5004694;28;45892;-72
2021/11/24 00:28:13;;;;;;;;;30.00;21.00;;;;;;;;5002660;28;45467;-71
2021/11/24 00:30:39;;;;;;;;;26.67;19.67;;;;;;;;5005182;28;46821;-74
2021/11/24 00:33:04;;;;;;;;;36.00;24.67;;;;;;;;5004948;28;46956;-72
2021/11/24 00:35:29;;;;;;;;;27.33;21.33;;;;;;;;5003982;28;45547;-72
2021/11/24 00:37:54;;;;;;;;;25.33;22.00;;;;;;;;5008863;28;45379;-71
2021/11/24 00:40:20;;;;;;;;;26.00;20.33;;;;;;;;5009593;28;45555;-73
2021/11/24 00:42:45;;;;;;;;;27.75;19.75;;;;;;;;5010990;28;46185;-72
2021/11/24 00:45:11;;;;;;;;;30.00;21.00;;;;;;;;5009676;28;45420;-72
2021/11/24 00:47:36;;;;;;;;;28.50;18.50;;;;;;;;5010943;28;45372;-72
2021/11/24 00:50:02;;;;;;;;;28.75;19.50;;;;;;;;5005436;28;45503;-72
2021/11/24 00:52:29;;;;;;;;;36.25;24.00;;;;;;;;5006998;28;45466;-72
2021/11/24 00:54:55;;;;;;;;;21.75;18.50;;;;;;;;5004284;28;46084;-72
2021/11/24 00:57:20;;;;;;;;;29.00;18.00;;;;;;;;5014086;28;45802;-72
2021/11/24 00:59:45;;;;;;;;;21.25;19.50;;;;;;;;5011011;28;45489;-73
2021/11/24 01:02:10;;;;;;;;;26.00;17.00;;;;;;;;5007819;28;45465;-73
2021/11/24 01:04:35;;;;;;;;;24.33;19.00;;;;;;;;5010664;28;45594;-73
2021/11/24 01:07:01;;;;;;;;;28.33;20.33;;;;;;;;5007501;28;45530;-73
2021/11/24 01:09:26;;;;;;;;;31.00;22.67;;;;;;;;5004169;28;45486;-73
2021/11/24 01:11:51;;;;;;;;;26.67;20.00;;;;;;;;5008838;28;45493;-73
2021/11/24 01:14:16;;;;;;;;;23.67;18.33;;;;;;;;5002138;28;45364;-73
2021/11/24 01:16:44;;;;;;;;;20.33;16.00;;;;;;;;5005343;28;45654;-73
2021/11/24 01:19:09;;;;;;;;;28.25;21.75;;;;;;;;5011456;28;45261;-73
2021/11/24 01:21:34;;;;;;;;;25.67;22.00;;;;;;;;5001630;28;46151;-73
2021/11/24 01:23:59;;;;;;;;;29.33;22.67;;;;;;;;5013297;28;45676;-73
2021/11/24 01:26:24;;;;;;;;;23.33;19.00;;;;;;;;5011458;28;45446;-73
2021/11/24 01:28:50;;;;;;;;;30.00;20.00;;;;;;;;5004958;28;45402;-73
2021/11/24 01:31:15;;;;;;;;;26.33;21.00;;;;;;;;5001488;28;45982;-73
2021/11/24 01:33:40;;;;;;;;;17.00;15.67;;;;;;;;5003619;28;45596;-74
2021/11/24 01:36:05;;;;;;;;;20.00;15.67;;;;;;;;4997485;28;45528;-73
2021/11/24 01:38:30;;;;;;;;;26.33;24.00;;;;;;;;5000191;28;45823;-73
2021/11/24 01:40:56;;;;;;;;;28.33;22.67;;;;;;;;5006755;28;45521;-73
2021/11/24 01:43:21;;;;;;;;;19.75;19.50;;;;;;;;5008435;28;45427;-73
2021/11/24 01:45:46;;;;;;;;;25.00;20.00;;;;;;;;4999321;28;45566;-73
2021/11/24 01:48:11;;;;;;;;;30.67;20.00;;;;;;;;4999304;28;45697;-73
2021/11/24 01:50:37;;;;;;;;;30.33;21.00;;;;;;;;5009068;28;47283;-73
2021/11/24 01:53:03;;;;;;;;;24.00;20.25;;;;;;;;5009066;28;45376;-73
2021/11/24 01:55:28;;;;;;;;;25.50;22.75;;;;;;;;5012679;28;45365;-73
2021/11/24 01:57:53;;;;;;;;;22.25;16.50;;;;;;;;5008110;28;45479;-73
2021/11/24 02:00:20;;;;;;;;;25.75;14.75;;;;;;;;5013197;28;45443;-72
2021/11/24 02:02:46;;;;;;;;;23.75;21.25;;;;;;;;5004832;28;45444;-73
2021/11/24 02:05:11;;;;;;;;;28.67;24.00;;;;;;;;5005062;28;45570;-72
2021/11/24 02:07:36;;;;;;;;;21.00;15.67;;;;;;;;5000229;28;45475;-73
2021/11/24 02:10:03;;;;;;;;;19.50;19.50;;;;;;;;5000516;28;46196;-73
2021/11/24 02:12:28;;;;;;;;;28.75;18.75;;;;;;;;5012432;28;45486;-72
2021/11/24 02:14:53;;;;;;;;;23.00;19.00;;;;;;;;5010504;28;45441;-72
2021/11/24 02:17:18;;;;;;;;;19.00;18.00;;;;;;;;4999863;28;45532;-72
2021/11/24 02:19:44;;;;;;;;;19.25;17.50;;;;;;;;4996203;28;45509;-73
2021/11/24 02:22:10;;;;;;;;;20.75;15.00;;;;;;;;5002121;28;45695;-72
2021/11/24 02:24:37;;;;;;;;;25.00;19.00;;;;;;;;5000266;28;45403;-72
2021/11/24 02:27:04;;;;;;;;;28.50;23.75;;;;;;;;5014850;28;45564;-73
2021/11/24 02:29:30;;;;;;;;;24.00;18.75;;;;;;;;5003578;28;45666;-73
2021/11/24 02:31:59;;;;;;;;;27.75;20.00;;;;;;;;5010450;28;45427;-72
2021/11/24 02:34:25;;;;;;;;;23.75;17.25;;;;;;;;5008461;28;45601;-73
2021/11/24 02:36:51;;;;;;;;;26.50;19.75;;;;;;;;5013021;28;45552;-72
2021/11/24 02:39:16;;;;;;;;;20.33;15.00;;;;;;;;5011104;28;45517;-72
2021/11/24 02:41:42;;;;;;;;;29.67;22.67;;;;;;;;5001883;28;45453;-73
2021/11/24 02:44:19;;;;;;;;;24.50;22.25;;;;;;;;5011251;28;45294;-72
2021/11/24 02:46:45;;;;;;;;;24.75;19.00;;;;;;;;5009995;28;45640;-73
2021/11/24 02:49:10;;;;;;;;;20.50;15.25;;;;;;;;5011679;28;46094;-73
2021/11/24 02:51:36;;;;;;;;;21.25;17.50;;;;;;;;5014177;28;45346;-72
2021/11/24 02:54:01;;;;;;;;;23.25;20.75;;;;;;;;5011327;28;46079;-72
2021/11/24 02:56:26;;;;;;;;;21.67;15.33;;;;;;;;5007670;28;45406;-73
2021/11/24 02:58:51;;;;;;;;;28.00;18.00;;;;;;;;5008876;28;45478;-72
2021/11/24 03:01:17;;;;;;;;;28.33;16.33;;;;;;;;5011358;28;45463;-73
2021/11/24 03:03:42;;;;;;;;;20.00;18.67;;;;;;;;5012528;28;45489;-73
2021/11/24 03:06:07;;;;;;;;;22.00;19.33;;;;;;;;5002940;28;45427;-73
2021/11/24 03:08:32;;;;;;;;;30.25;20.25;;;;;;;;5012623;28;47142;-73
2021/11/24 03:10:57;;;;;;;;;26.67;20.00;;;;;;;;5008316;28;45744;-72
2021/11/24 03:13:23;;;;;;;;;19.33;16.67;;;;;;;;5008598;28;45389;-72
2021/11/24 03:15:48;;;;;;;;;21.00;17.00;;;;;;;;5007707;28;45428;-72
2021/11/24 03:18:13;;;;;;;;;32.67;18.67;;;;;;;;4999549;28;46230;-72
2021/11/24 03:20:38;;;;;;;;;30.33;16.67;;;;;;;;5010836;28;45247;-73
2021/11/24 03:23:04;;;;;;;;;30.33;22.00;;;;;;;;5006528;28;45280;-73
2021/11/24 03:25:30;;;;;;;;;21.00;17.50;;;;;;;;5005585;28;47880;-73
2021/11/24 03:27:55;;;;;;;;;26.25;18.75;;;;;;;;5015446;28;45964;-72
2021/11/24 03:30:22;;;;;;;;;26.33;17.33;;;;;;;;4999478;28;45460;-73
2021/11/24 03:32:47;;;;;;;;;26.75;20.75;;;;;;;;5011810;28;45552;-72
2021/11/24 03:35:16;;;;;;;;;23.00;14.67;;;;;;;;5008790;28;45474;-73
2021/11/24 03:37:41;;;;;;;;;16.50;16.00;;;;;;;;5005244;28;47321;-73
2021/11/24 03:40:07;;;;;;;;;18.50;15.50;;;;;;;;5012179;28;45503;-73
2021/11/24 03:42:33;;;;;;;;;26.50;19.00;;;;;;;;5003288;28;45712;-73
2021/11/24 03:44:59;;;;;;;;;24.50;16.75;;;;;;;;5002398;28;45420;-73
2021/11/24 03:47:24;;;;;;;;;26.00;16.00;;;;;;;;5009845;28;45467;-73
2021/11/24 03:49:49;;;;;;;;;22.00;17.33;;;;;;;;4987737;28;45550;-72
2021/11/24 03:52:15;;;;;;;;;22.50;16.75;;;;;;;;5003999;28;46127;-72
2021/11/24 03:54:40;;;;;;;;;24.75;18.50;;;;;;;;5005953;28;45435;-73
2021/11/24 03:57:05;;;;;;;;;20.33;16.67;;;;;;;;5013023;28;45608;-72
2021/11/24 03:59:30;;;;;;;;;22.00;19.00;;;;;;;;5007106;28;45590;-72
2021/11/24 04:01:56;;;;;;;;;23.00;13.00;;;;;;;;5005022;28;45408;-72
2021/11/24 04:04:21;;;;;;;;;26.50;19.75;;;;;;;;5006905;28;45762;-73
2021/11/24 04:06:46;;;;;;;;;20.67;16.33;;;;;;;;5002736;28;46068;-72
2021/11/24 04:09:11;;;;;;;;;29.00;20.33;;;;;;;;4998875;28;45365;-73
2021/11/24 04:11:36;;;;;;;;;17.33;14.67;;;;;;;;5011532;28;45329;-73
2021/11/24 04:14:02;;;;;;;;;24.33;18.67;;;;;;;;5009636;28;45529;-73
2021/11/24 04:16:27;;;;;;;;;23.25;19.25;;;;;;;;5003864;28;45527;-72
2021/11/24 04:18:54;;;;;;;;;29.33;15.67;;;;;;;;5008974;28;45459;-72
2021/11/24 04:21:19;;;;;;;;;22.75;15.50;;;;;;;;5006907;28;45427;-72
2021/11/24 04:23:45;;;;;;;;;26.33;22.00;;;;;;;;5012237;28;45553;-73
2021/11/24 04:26:10;;;;;;;;;24.75;18.00;;;;;;;;5003477;28;45812;-72
2021/11/24 04:28:35;;;;;;;;;23.75;17.00;;;;;;;;5003001;28;45456;-74
2021/11/24 04:31:05;;;;;;;;;23.67;19.33;;;;;;;;5002139;28;45512;-73
2021/11/24 04:33:30;;;;;;;;;29.25;20.50;;;;;;;;5003170;28;45541;-72
2021/11/24 04:35:55;;;;;;;;;27.33;19.00;;;;;;;;4999448;28;45544;-72
2021/11/24 04:38:21;;;;;;;;;32.00;19.33;;;;;;;;5010644;28;45400;-72
2021/11/24 04:40:46;;;;;;;;;21.33;18.33;;;;;;;;5010270;28;45569;-73
2021/11/24 04:43:13;;;;;;;;;34.67;22.33;;;;;;;;5011512;28;45545;-73
2021/11/24 04:45:39;;;;;;;;;34.75;18.00;;;;;;;;5014387;28;47320;-73
2021/11/24 04:48:04;;;;;;;;;23.33;19.67;;;;;;;;5004427;28;45546;-73
2021/11/24 04:50:29;;;;;;;;;22.75;20.75;;;;;;;;5007211;28;46261;-73
2021/11/24 04:52:55;;;;;;;;;23.33;19.33;;;;;;;;5007164;28;45462;-73
2021/11/24 04:55:20;;;;;;;;;25.33;19.00;;;;;;;;5004254;28;45557;-73
2021/11/24 04:57:45;;;;;;;;;28.33;20.00;;;;;;;;5008604;28;45533;-73
2021/11/24 05:00:16;;;;;;;;;25.00;18.67;;;;;;;;4998796;28;45474;-73
2021/11/24 05:02:41;;;;;;;;;24.50;20.75;;;;;;;;5005515;28;45589;-73
2021/11/24 05:05:06;;;;;;;;;25.00;22.67;;;;;;;;5001092;28;46206;-73
2021/11/24 05:07:31;;;;;;;;;19.50;17.50;;;;;;;;5003171;28;45443;-73
2021/11/24 05:09:57;;;;;;;;;23.33;18.67;;;;;;;;5002503;28;45455;-73
2021/11/24 05:12:22;;;;;;;;;24.33;17.67;;;;;;;;5013213;28;45357;-73
2021/11/24 05:14:49;;;;;;;;;4.67;0.33;;;;;;;;4999023;28;45406;-73
2021/11/24 05:17:17;;;;;;;;;30.00;21.00;;;;;;;;5012572;28;45891;-73
2021/11/24 05:19:47;;;;;;;;;29.25;19.50;;;;;;;;5009830;28;45426;-74
2021/11/24 05:22:12;;;;;;;;;28.50;21.50;;;;;;;;5003774;28;47878;-73
2021/11/24 05:24:37;;;;;;;;;31.75;24.50;;;;;;;;5014170;28;46368;-73
2021/11/24 05:27:03;;;;;;;;;35.33;21.33;;;;;;;;5010288;28;45898;-73
2021/11/24 05:29:28;;;;;;;;;21.75;15.00;;;;;;;;5006868;28;45424;-73
2021/11/24 05:31:53;;;;;;;;;20.00;16.00;;;;;;;;5009100;28;45549;-73
2021/11/24 05:34:18;;;;;;;;;25.33;22.00;;;;;;;;5005457;28;46497;-73
2021/11/24 05:36:44;;;;;;;;;36.00;22.33;;;;;;;;5008761;28;45528;-73
2021/11/24 05:39:10;;;;;;;;;28.00;21.25;;;;;;;;4996939;28;45455;-73
2021/11/24 05:41:39;;;;;;;;;26.50;19.50;;;;;;;;5005665;28;45388;-73
2021/11/24 05:44:25;;;;;;;;;30.75;20.50;;;;;;;;4999882;28;47105;-73
2021/11/24 05:46:55;;;;;;;;;27.50;21.50;;;;;;;;5008851;28;45756;-73
2021/11/24 05:49:21;;;;;;;;;23.75;18.25;;;;;;;;5007935;28;45484;-73
2021/11/24 05:51:46;;;;;;;;;28.50;21.25;;;;;;;;4998373;28;45403;-73
2021/11/24 05:54:12;;;;;;;;;30.75;23.25;;;;;;;;5005241;28;45576;-73
2021/11/24 05:56:38;;;;;;;;;20.00;18.75;;;;;;;;5009820;28;45396;-73
2021/11/24 05:59:08;;;;;;;;;24.25;19.75;;;;;;;;5012118;28;45496;-74
2021/11/24 06:01:33;;;;;;;;;37.75;28.75;;;;;;;;5011041;28;45327;-73
2021/11/24 06:03:58;;;;;;;;;30.50;23.00;;;;;;;;5012744;28;45696;-73
2021/11/24 06:06:24;;;;;;;;;26.67;21.33;;;;;;;;5010599;28;45254;-73
2021/11/24 06:08:49;;;;;;;;;34.33;22.33;;;;;;;;5007128;28;45635;-73
2021/11/24 06:11:14;;;;;;;;;21.00;19.00;;;;;;;;5003793;28;45357;-73
2021/11/24 06:13:39;;;;;;;;;25.67;17.67;;;;;;;;5004273;28;46302;-73
2021/11/24 06:16:04;;;;;;;;;25.00;18.67;;;;;;;;5010432;28;45526;-73
2021/11/24 06:18:30;;;;;;;;;29.00;20.67;;;;;;;;5012006;28;45617;-73
2021/11/24 06:20:55;;;;;;;;;26.25;23.50;;;;;;;;5004612;28;45411;-73
2021/11/24 06:23:20;;;;;;;;;20.33;15.00;;;;;;;;5006467;28;45344;-74
2021/11/24 06:25:45;;;;;;;;;29.67;22.67;;;;;;;;4992918;28;45448;-73
2021/11/24 06:28:12;;;;;;;;;22.00;18.00;;;;;;;;5006042;28;45348;-73
2021/11/24 06:30:37;;;;;;;;;23.75;19.25;;;;;;;;5006222;28;45469;-73
2021/11/24 06:33:02;;;;;;;;;22.67;19.67;;;;;;;;5008795;28;45595;-72
2021/11/24 06:35:28;;;;;;;;;25.33;21.00;;;;;;;;5004844;28;45381;-73
2021/11/24 06:37:53;;;;;;;;;24.33;18.00;;;;;;;;5005385;28;46103;-73
2021/11/24 06:40:18;;;;;;;;;31.00;20.00;;;;;;;;5005012;28;45676;-73
2021/11/24 06:42:44;;;;;;;;;25.00;17.00;;;;;;;;5004301;28;45566;-73
2021/11/24 06:45:09;;;;;;;;;19.25;19.25;;;;;;;;5000596;28;45466;-73
2021/11/24 06:47:35;;;;;;;;;24.75;21.00;;;;;;;;5003435;28;45360;-73
2021/11/24 06:50:01;;;;;;;;;27.50;21.75;;;;;;;;5005564;28;45509;-73
2021/11/24 06:52:26;;;;;;;;;26.00;20.25;;;;;;;;5005193;28;45528;-73
2021/11/24 06:54:51;;;;;;;;;23.00;18.00;;;;;;;;5004506;28;45433;-73
2021/11/24 06:57:16;;;;;;;;;29.00;18.00;;;;;;;;5012054;28;45332;-73
2021/11/24 06:59:41;;;;;;;;;21.00;17.33;;;;;;;;5002430;28;45430;-73
2021/11/24 07:02:07;;;;;;;;;46.00;38.33;;;;;;;;5000909;28;46688;-73
2021/11/24 07:04:32;;;;;;;;;48.25;33.75;;;;;;;;5004790;28;45568;-73
2021/11/24 07:06:58;;;;;;;;;41.75;32.75;;;;;;;;5002105;28;45796;-73
2021/11/24 07:09:24;;;;;;;;;53.75;41.75;;;;;;;;5015081;28;45312;-72
2021/11/24 07:11:50;;;;;;;;;62.50;46.75;;;;;;;;5001018;28;46181;-73
2021/11/24 07:14:15;;;;;;;;;114.50;97.25;;;;;;;;5004849;28;45350;-73
2021/11/24 07:16:40;;;;;;;;;89.00;66.33;;;;;;;;5004833;28;45430;-73
2021/11/24 07:19:06;;;;;;;;;58.67;43.33;;;;;;;;5004807;28;45473;-73
2021/11/24 07:21:31;;;;;;;;;45.00;34.50;;;;;;;;5001929;28;46499;-73
2021/11/24 07:23:56;;;;;;;;;30.67;24.00;;;;;;;;4999489;28;45325;-73
2021/11/24 07:26:21;;;;;;;;;34.33;24.33;;;;;;;;5010541;28;45491;-73
2021/11/24 07:28:47;;;;;;;;;63.33;44.00;;;;;;;;5008394;28;45476;-73
2021/11/24 07:31:12;;;;;;;;;57.33;37.00;;;;;;;;5006410;28;46887;-73
2021/11/24 07:33:37;;;;;;;;;55.75;45.75;;;;;;;;5015812;28;45403;-73
2021/11/24 07:36:03;;;;;;;;;69.33;50.00;;;;;;;;4998418;28;45362;-73
2021/11/24 07:38:28;;;;;;;;;51.25;41.50;;;;;;;;5005557;28;45537;-73
2021/11/24 07:40:53;;;;;;;;;39.00;31.33;;;;;;;;5001645;28;45459;-73
2021/11/24 07:43:19;;;;;;;;;47.75;42.25;;;;;;;;5004278;28;45406;-73
2021/11/24 07:45:44;;;;;;;;;88.75;61.25;;;;;;;;5001242;28;45526;-74
2021/11/24 07:48:11;;;;;;;;;51.50;41.75;;;;;;;;5009320;28;45484;-73
2021/11/24 07:50:36;;;;;;;;;56.75;30.75;;;;;;;;5002500;28;46682;-73
2021/11/24 07:53:01;;;;;;;;;53.67;38.33;;;;;;;;5007552;28;45590;-74
2021/11/24 07:55:27;;;;;;;;;60.33;35.67;;;;;;;;5012560;28;45427;-73
2021/11/24 07:57:52;;;;;;;;;37.67;27.67;;;;;;;;5004237;28;45473;-73
2021/11/24 08:00:17;;;;;;;;;32.00;29.67;;;;;;;;5001536;28;45914;-73
2021/11/24 08:02:42;;;;;;;;;39.75;33.50;;;;;;;;5001467;28;45454;-73
2021/11/24 08:05:08;;;;;;;;;52.75;32.75;;;;;;;;5006671;28;45496;-73
2021/11/24 08:07:36;;;;;;;;;37.00;30.75;;;;;;;;5002797;28;45637;-73
2021/11/24 08:10:02;;;;;;;;;33.00;24.50;;;;;;;;5008140;28;45487;-73
2021/11/24 08:12:27;;;;;;;;;29.50;25.50;;;;;;;;5010476;28;45851;-73
2021/11/24 08:14:52;;;;;;;;;34.67;25.00;;;;;;;;5010123;28;45473;-73
2021/11/24 08:17:18;;;;;;;;;27.75;23.75;;;;;;;;5004309;28;45450;-73
2021/11/24 08:19:43;;;;;;;;;30.25;22.00;;;;;;;;5002131;28;46279;-73
2021/11/24 08:22:08;;;;;;;;;28.00;22.67;;;;;;;;5003653;28;45502;-73
2021/11/24 08:24:33;;;;;;;;;22.00;20.00;;;;;;;;5001494;28;45366;-74
2021/11/24 08:26:59;;;;;;;;;31.67;21.67;;;;;;;;4998261;28;45372;-74
2021/11/24 08:29:24;;;;;;;;;20.67;20.67;;;;;;;;5002163;28;45349;-73
2021/11/24 08:31:49;;;;;;;;;45.00;29.67;;;;;;;;5004142;28;45698;-73
2021/11/24 08:34:14;;;;;;;;;33.00;19.33;;;;;;;;5000932;28;45533;-73
2021/11/24 08:36:40;;;;;;;;;26.67;19.00;;;;;;;;5012238;28;46242;-73
2021/11/24 08:39:05;;;;;;;;;35.00;23.50;;;;;;;;5001527;28;45333;-72
2021/11/24 08:41:31;;;;;;;;;24.50;19.25;;;;;;;;5008124;28;45699;-72
2021/11/24 08:43:56;;;;;;;;;33.25;27.25;;;;;;;;5001192;28;45502;-72
2021/11/24 08:46:21;;;;;;;;;200.00;166.67;;;;;;;;5008725;28;45561;-73
2021/11/24 08:48:47;;;;;;;;;28.00;20.50;;;;;;;;5005644;28;46024;-71
2021/11/24 08:51:12;;;;;;;;;27.00;20.33;;;;;;;;5010049;28;45523;-72
2021/11/24 08:53:37;;;;;;;;;24.75;23.50;;;;;;;;4998608;28;45537;-72
2021/11/24 08:56:03;;;;;;;;;25.50;21.25;;;;;;;;5006078;28;45873;-71
2021/11/24 08:58:28;;;;;;;;;31.00;22.25;;;;;;;;5006942;28;46706;-74
2021/11/24 09:00:53;;;;;;;;;24.67;20.00;;;;;;;;5009537;28;45399;-72
2021/11/24 09:03:20;;;;;;;;;66.00;50.25;;;;;;;;4998278;28;45663;-72
2021/11/24 09:05:46;;;;;;;;;26.75;23.75;;;;;;;;5008063;28;45502;-71
2021/11/24 09:08:11;;;;;;;;;29.25;24.00;;;;;;;;5011264;28;45516;-70
2021/11/24 09:10:38;;;;;;;;;22.67;18.67;;;;;;;;5005331;28;45527;-71
2021/11/24 09:13:03;;;;;;;;;22.75;19.00;;;;;;;;5003967;28;45307;-71
2021/11/24 09:15:28;;;;;;;;;27.33;20.00;;;;;;;;5012972;28;45557;-70
2021/11/24 09:17:54;;;;;;;;;31.00;24.33;;;;;;;;5013271;28;46111;-71
2021/11/24 09:20:20;;;;;;;;;45.25;34.75;;;;;;;;5001923;28;45425;-71
2021/11/24 09:22:47;;;;;;;;;64.75;47.50;;;;;;;;5010281;28;45324;-72
2021/11/24 09:25:15;;;;;;;;;33.75;21.00;;;;;;;;5012538;28;45671;-71
2021/11/24 09:30:21;;;;;;;;;23.75;19.00;;;;;;;;5008609;28;45538;-72
2021/11/24 09:32:46;;;;;;;;;35.00;28.75;;;;;;;;5008916;28;45564;-72
2021/11/24 09:35:12;;;;;;;;;39.00;31.50;;;;;;;;5012790;28;45530;-71
2021/11/24 09:37:37;;;;;;;;;33.00;21.50;;;;;;;;5008562;28;46026;-71
2021/11/24 09:40:05;;;;;;;;;31.67;20.67;;;;;;;;5011781;28;45597;-71
2021/11/24 09:42:31;;;;;;;;;29.50;23.25;;;;;;;;4999418;28;45592;-72
2021/11/24 09:44:57;;;;;;;;;31.25;24.25;;;;;;;;5003850;28;45583;-71
2021/11/24 09:47:25;;;;;;;;;25.75;19.00;;;;;;;;4999755;28;47000;-71
2021/11/24 09:49:54;;;;;;;;;24.25;17.25;;;;;;;;5001907;28;45434;-71
2021/11/24 09:52:20;;;;;;;;;34.50;26.75;;;;;;;;5002336;28;45516;-71
2021/11/24 09:54:51;;;;;;;;;25.25;18.25;;;;;;;;5000226;28;45469;-71
2021/11/24 09:57:18;;;;;;;;;28.50;20.50;;;;;;;;5000472;28;46183;-71
2021/11/24 09:59:43;;;;;;;;;25.50;20.50;;;;;;;;5004161;28;45360;-72
2021/11/24 10:02:10;;;;;;;;;19.00;15.67;;;;;;;;5001893;28;48067;-72
2021/11/24 10:04:35;;;;;;;;;30.75;23.00;;;;;;;;5004518;28;45406;-71
2021/11/24 10:07:01;;;;;;;;;28.33;21.00;;;;;;;;5001370;28;45348;-72
2021/11/24 10:09:26;;;;;;;;;25.75;18.00;;;;;;;;5004767;28;45594;-72
2021/11/24 10:11:51;;;;;;;;;31.33;24.67;;;;;;;;5009553;28;45490;-72
2021/11/24 10:14:17;;;;;;;;;22.00;18.00;;;;;;;;5009616;28;45325;-72
2021/11/24 10:16:42;;;;;;;;;25.50;19.00;;;;;;;;5010541;28;45464;-72
2021/11/24 10:19:09;;;;;;;;;22.50;18.00;;;;;;;;5000129;28;45378;-72
2021/11/24 10:21:34;;;;;;;;;22.75;18.00;;;;;;;;4998424;28;45501;-72
2021/11/24 10:24:02;;;;;;;;;27.25;17.50;;;;;;;;4995348;28;45863;-72
2021/11/24 10:26:31;;;;;;;;;26.75;19.50;;;;;;;;5010157;28;46175;-71
2021/11/24 10:29:07;;;;;;;;;27.50;16.25;;;;;;;;5006843;28;46175;-72
2021/11/24 10:31:36;;;;;;;;;24.75;19.25;;;;;;;;5007836;28;45514;-71
2021/11/24 10:34:10;;;;;;;;;24.50;19.00;;;;;;;;5011317;28;45621;-72
2021/11/24 10:36:47;;;;;;;;;28.50;19.25;;;;;;;;4999225;28;47210;-72
2021/11/24 10:39:12;;;;;;;;;24.25;17.50;;;;;;;;4997107;28;45364;-72
2021/11/24 10:41:39;;;;;;;;;23.00;13.67;;;;;;;;4999573;28;45560;-72
2021/11/24 10:44:05;;;;;;;;;23.00;19.00;;;;;;;;5001963;28;45478;-71
2021/11/24 10:46:32;;;;;;;;;18.75;17.00;;;;;;;;5001558;28;46470;-71
2021/11/24 10:49:04;;;;;;;;;24.25;16.00;;;;;;;;5013676;28;45442;-71
2021/11/24 10:51:40;;;;;;;;;26.75;21.00;;;;;;;;5016495;28;45442;-72
2021/11/24 10:54:05;;;;;;;;;23.75;19.50;;;;;;;;5013366;28;45526;-72
2021/11/24 10:56:31;;;;;;;;;21.25;19.00;;;;;;;;5003223;28;46237;-72
2021/11/24 10:59:15;;;;;;;;;24.50;21.25;;;;;;;;5005209;28;45434;-72
2021/11/24 11:01:41;;;;;;;;;29.00;25.25;;;;;;;;5004755;28;45458;-71
2021/11/24 11:04:08;;;;;;;;;37.00;28.00;;;;;;;;5013137;28;45654;-72
2021/11/24 11:06:33;;;;;;;;;25.00;22.25;;;;;;;;5011317;28;46182;-72
2021/11/24 11:08:58;;;;;;;;;24.00;18.67;;;;;;;;5006359;28;45398;-72
2021/11/24 11:11:27;;;;;;;;;27.00;21.00;;;;;;;;5013224;28;45727;-71
2021/11/24 11:14:11;;;;;;;;;20.50;17.75;;;;;;;;5010323;28;45599;-71
2021/11/24 11:16:50;;;;;;;;;21.25;19.25;;;;;;;;5010198;28;46424;-71
2021/11/24 11:19:35;;;;;;;;;26.50;19.75;;;;;;;;5011411;28;45403;-72
2021/11/24 11:22:00;;;;;;;;;24.00;18.50;;;;;;;;5012391;28;45452;-71
2021/11/24 11:24:26;;;;;;;;;27.67;24.00;;;;;;;;5000576;28;45537;-71
2021/11/24 11:26:51;;;;;;;;;25.33;21.00;;;;;;;;5000032;28;46601;-72
2021/11/24 11:29:17;;;;;;;;;23.25;21.75;;;;;;;;5005471;28;46229;-72
2021/11/24 11:31:42;;;;;;;;;27.75;20.25;;;;;;;;5004361;28;45296;-71
2021/11/24 11:34:10;;;;;;;;;30.25;23.00;;;;;;;;5003747;28;45579;-72
2021/11/24 11:36:36;;;;;;;;;20.50;15.00;;;;;;;;5001529;28;46405;-71
2021/11/24 11:39:02;;;;;;;;;22.50;21.25;;;;;;;;5004681;28;45660;-71
2021/11/24 11:41:32;;;;;;;;;24.75;19.25;;;;;;;;5003231;28;45177;-71
2021/11/24 11:43:58;;;;;;;;;25.50;20.75;;;;;;;;5003810;28;45523;-71
2021/11/24 11:46:25;;;;;;;;;17.25;12.25;;;;;;;;5006577;28;46229;-79
2021/11/24 11:48:54;;;;;;;;;25.00;19.75;;;;;;;;5007284;28;45558;-73
2021/11/24 11:51:33;;;;;;;;;23.50;17.00;;;;;;;;4997978;28;45780;-74
2021/11/24 11:53:59;;;;;;;;;16.50;15.00;;;;;;;;5011329;28;45471;-73
2021/11/24 11:56:26;;;;;;;;;22.25;19.75;;;;;;;;5008725;28;46136;-73
2021/11/24 11:58:54;;;;;;;;;21.25;20.00;;;;;;;;5002624;28;45735;-73
2021/11/24 12:01:23;;;;;;;;;22.75;20.00;;;;;;;;5009744;28;45567;-73
2021/11/24 12:03:58;;;;;;;;;23.25;17.75;;;;;;;;5011624;28;45392;-73
2021/11/24 12:06:26;;;;;;;;;23.50;21.50;;;;;;;;4997981;28;46270;-73
2021/11/24 12:09:06;;;;;;;;;16.00;14.50;;;;;;;;5013409;28;45799;-73
2021/11/24 12:11:50;;;;;;;;;27.00;17.50;;;;;;;;5013433;28;45563;-73
2021/11/24 12:14:34;;;;;;;;;22.25;19.00;;;;;;;;4992670;28;45612;-73
2021/11/24 12:17:00;;;;;;;;;15.50;13.00;;;;;;;;5005274;28;45523;-73
2021/11/24 12:19:33;;;;;;;;;28.33;16.33;;;;;;;;5007051;28;45568;-73
2021/11/24 12:21:58;;;;;;;;;15.25;9.75;;;;;;;;5005527;28;45554;-73
2021/11/24 12:24:39;;;;;;;;;16.25;14.25;;;;;;;;5014986;28;45491;-72
2021/11/24 12:27:04;;;;;;;;;22.75;16.75;;;;;;;;5011129;28;46273;-73
2021/11/24 12:29:46;;;;;;;;;17.50;16.50;;;;;;;;5007213;28;45542;-73
2021/11/24 12:32:11;;;;;;;;;24.00;18.00;;;;;;;;5011424;28;45289;-73
2021/11/24 12:34:51;;;;;;;;;22.00;16.67;;;;;;;;5009004;28;45287;-73
2021/11/24 12:37:22;;;;;;;;;21.50;19.25;;;;;;;;5006458;28;47228;-73
2021/11/24 12:39:48;;;;;;;;;17.75;16.00;;;;;;;;5010410;28;45407;-73
2021/11/24 12:42:14;;;;;;;;;19.50;17.00;;;;;;;;5004624;28;45411;-73
2021/11/24 12:44:52;;;;;;;;;22.00;17.00;;;;;;;;5000818;28;46230;-73
2021/11/24 12:47:21;;;;;;;;;18.25;14.00;;;;;;;;5003146;28;46489;-73
2021/11/24 12:49:47;;;;;;;;;19.25;16.25;;;;;;;;5010360;28;45339;-73
2021/11/24 12:52:13;;;;;;;;;19.75;18.75;;;;;;;;5001424;28;45324;-73
2021/11/24 12:54:39;;;;;;;;;45.67;39.00;;;;;;;;5009900;28;45560;-73
2021/11/24 12:57:06;;;;;;;;;20.00;17.50;;;;;;;;5001867;28;45659;-73
2021/11/24 12:59:33;;;;;;;;;20.00;14.50;;;;;;;;5005466;28;45517;-73
2021/11/24 13:01:59;;;;;;;;;20.25;15.75;;;;;;;;5014699;28;45305;-73
2021/11/24 13:04:51;;;;;;;;;20.75;16.50;;;;;;;;5010822;28;45402;-73
2021/11/24 13:07:19;;;;;;;;;28.25;20.25;;;;;;;;5000912;28;46402;-73
2021/11/24 13:09:44;;;;;;;;;20.50;14.75;;;;;;;;5009373;28;45608;-73
2021/11/24 13:12:13;;;;;;;;;13.75;9.00;;;;;;;;5003056;28;45721;-73
2021/11/24 13:14:38;;;;;;;;;13.00;12.50;;;;;;;;4999048;28;45475;-73
2021/11/24 13:17:09;;;;;;;;;15.67;13.00;;;;;;;;5003542;28;45595;-73
2021/11/24 13:19:34;;;;;;;;;17.00;12.25;;;;;;;;5000914;28;46023;-73
2021/11/24 13:22:00;;;;;;;;;19.33;13.33;;;;;;;;5001298;28;45458;-73
2021/11/24 13:24:26;;;;;;;;;19.75;13.75;;;;;;;;5007122;28;45644;-73
2021/11/24 13:26:53;;;;;;;;;18.00;16.25;;;;;;;;4997041;28;46546;-73
2021/11/24 13:29:18;;;;;;;;;16.00;12.00;;;;;;;;5007995;28;45483;-72
2021/11/24 13:31:44;;;;;;;;;17.25;14.75;;;;;;;;5005564;28;45429;-74
2021/11/24 13:34:09;;;;;;;;;16.33;14.00;;;;;;;;5006087;28;45367;-73
2021/11/24 13:36:42;;;;;;;;;22.33;15.67;;;;;;;;4998771;28;45517;-73
2021/11/24 13:39:08;;;;;;;;;16.75;15.00;;;;;;;;5004163;28;45451;-75
2021/11/24 13:41:35;;;;;;;;;16.33;14.00;;;;;;;;5005424;28;45337;-76
2021/11/24 13:44:02;;;;;;;;;21.75;16.50;;;;;;;;5011287;28;45456;-75
2021/11/24 13:46:29;;;;;;;;;22.00;15.25;;;;;;;;5001853;28;47732;-76
2021/11/24 13:49:09;;;;;;;;;14.00;11.00;;;;;;;;5003065;28;45843;-75
2021/11/24 13:51:35;;;;;;;;;18.00;14.00;;;;;;;;5001637;28;45403;-75
2021/11/24 13:54:11;;;;;;;;;17.50;14.25;;;;;;;;4996617;28;45484;-76
2021/11/24 13:56:52;;;;;;;;;16.25;14.00;;;;;;;;5013539;28;45995;-76
2021/11/24 13:59:28;;;;;;;;;18.75;14.75;;;;;;;;5007881;28;46001;-75
2021/11/24 14:02:06;;;;;;;;;17.25;15.25;;;;;;;;5005658;28;45405;-76
2021/11/24 14:04:34;;;;;;;;;19.25;15.25;;;;;;;;5005707;28;45640;-76
2021/11/24 14:07:22;;;;;;;;;16.75;15.50;;;;;;;;5010424;28;46164;-76
2021/11/24 14:09:52;;;;;;;;;22.50;16.00;;;;;;;;5006466;28;45971;-76
2021/11/24 14:12:30;;;;;;;;;17.75;16.00;;;;;;;;5006637;28;45447;-76
2021/11/24 14:15:06;;;;;;;;;20.50;17.00;;;;;;;;5003676;28;45649;-73
2021/11/24 14:17:36;;;;;;;;;15.75;15.75;;;;;;;;5012317;28;46462;-73